createdAt,value
2022-09-28T00:01:21.833Z,98456.91
2022-09-28T00:05:26.943Z,98459.59
2022-09-28T00:09:29.960Z,98455.28
2022-09-28T00:13:33.314Z,98444.88
2022-09-28T00:17:37.649Z,98459.84
2022-09-28T00:21:42.312Z,98461.66
2022-09-28T00:25:45.504Z,98448.53
2022-09-28T00:29:48.376Z,98452.91
2022-09-28T00:33:55.320Z,98452.91
2022-09-28T00:37:58.181Z,98441.50
2022-09-28T00:42:01.038Z,98443.28
2022-09-28T00:46:07.625Z,98440.69
2022-09-28T00:50:19.632Z,98440.69
2022-09-28T00:54:23.601Z,98436.34
2022-09-28T00:58:33.142Z,98436.34
2022-09-28T01:02:36.179Z,98437.25
2022-09-28T01:06:41.201Z,98443.38
2022-09-28T01:10:44.740Z,98456.59
2022-09-28T01:14:50.301Z,98473.44
2022-09-28T01:19:08.353Z,98472.66
2022-09-28T01:23:50.109Z,98462.19
2022-09-28T01:27:59.045Z,98454.25
2022-09-28T01:32:13.486Z,98456.06
2022-09-28T01:36:21.799Z,98460.44
2022-09-28T01:40:27.435Z,98463.03
2022-09-28T01:44:39.780Z,98462.19
2022-09-28T01:48:49.593Z,98456.91
2022-09-28T01:52:59.229Z,98452.50
2022-09-28T01:57:08.977Z,98439.38
2022-09-28T02:01:18.291Z,98430.66
2022-09-28T02:05:25.816Z,98449.22
2022-09-28T02:09:36.750Z,98446.63
2022-09-28T02:13:44.187Z,98444.91
2022-09-28T02:17:50.169Z,98453.78
2022-09-28T02:21:59.009Z,98444.13
2022-09-28T02:26:04.638Z,98442.38
2022-09-28T02:30:10.779Z,98437.13
2022-09-28T02:34:15.406Z,98442.28
2022-09-28T02:38:18.891Z,98432.66
2022-09-28T02:42:28.675Z,98437.84
2022-09-28T02:46:43.247Z,98434.31
2022-09-28T02:51:06.003Z,98433.41
2022-09-28T02:55:21.136Z,98436.13
2022-09-28T02:59:43.247Z,98424.69
2022-09-28T03:03:51.441Z,98434.28
2022-09-28T03:08:01.112Z,98432.50
2022-09-28T03:12:09.499Z,98427.25
2022-09-28T03:16:14.568Z,98422.06
2022-09-28T03:20:20.406Z,98416.78
2022-09-28T03:24:24.753Z,98413.28
2022-09-28T03:28:29.305Z,98410.75
2022-09-28T03:32:32.434Z,98409.06
2022-09-28T03:36:35.662Z,98403.75
2022-09-28T03:40:40.424Z,98394.19
2022-09-28T03:44:43.747Z,98386.31
2022-09-28T03:48:47.293Z,98390.66
2022-09-28T03:52:50.306Z,98395.09
2022-09-28T03:56:55.115Z,98394.25
2022-09-28T04:01:03.495Z,98385.41
2022-09-28T04:05:07.377Z,98388.91
2022-09-28T04:09:10.591Z,98382.66
2022-09-28T04:13:15.484Z,98381.69
2022-09-28T04:17:18.868Z,98378.94
2022-09-28T04:21:22.719Z,98378.03
2022-09-28T04:25:31.411Z,98354.25
2022-09-28T04:29:35.942Z,98357.69
2022-09-28T04:33:40.132Z,98363.81
2022-09-28T04:37:43.954Z,98360.25
2022-09-28T04:41:49.144Z,98362.00
2022-09-28T04:45:54.192Z,98358.56
2022-09-28T04:49:58.306Z,98357.84
2022-09-28T04:54:05.572Z,98358.00
2022-09-28T04:58:08.543Z,98360.59
2022-09-28T05:02:15.182Z,98353.47
2022-09-28T05:06:47.783Z,98348.19
2022-09-28T05:10:59.299Z,98343.97
2022-09-28T05:15:02.517Z,98325.59
2022-09-28T05:19:07.340Z,98325.69
2022-09-28T05:23:12.050Z,98331.03
2022-09-28T05:27:16.722Z,98336.28
2022-09-28T05:31:23.977Z,98338.16
2022-09-28T05:35:41.231Z,98319.81
2022-09-28T05:39:44.758Z,98310.25
2022-09-28T05:43:47.664Z,98300.59
2022-09-28T05:47:51.158Z,98284.84
2022-09-28T05:51:58.468Z,98290.13
2022-09-28T05:56:01.715Z,98283.97
2022-09-28T06:00:34.208Z,98296.31
2022-09-28T06:04:42.967Z,98291.94
2022-09-28T06:08:51.721Z,98303.38
2022-09-28T06:13:12.177Z,98302.41
2022-09-28T06:17:21.223Z,98305.84
2022-09-28T06:21:48.970Z,98292.69
2022-09-28T06:25:55.005Z,98289.97
2022-09-28T06:30:02.631Z,98292.50
2022-09-28T06:34:07.639Z,98293.19
2022-09-28T06:38:14.860Z,98290.41
2022-09-28T06:42:20.342Z,98284.97
2022-09-28T06:46:42.576Z,98293.56
2022-09-28T06:51:13.565Z,98297.69
2022-09-28T06:55:32.248Z,98285.19
2022-09-28T06:59:40.165Z,98274.38
2022-09-28T07:03:44.151Z,98260.88
2022-09-28T07:08:26.229Z,98247.28
2022-09-28T07:12:50.668Z,98244.06
2022-09-28T07:17:13.250Z,98236.59
2022-09-28T07:21:28.127Z,98232.56
2022-09-28T07:25:36.455Z,98229.34
2022-09-28T07:29:47.139Z,98230.53
2022-09-28T07:34:16.961Z,98216.78
2022-09-28T07:38:34.921Z,98203.88
2022-09-28T07:42:38.393Z,98198.22
2022-09-28T07:46:45.920Z,98197.84
2022-09-28T07:51:17.987Z,98182.25
2022-09-28T07:55:32.020Z,98175.63
2022-09-28T08:00:07.744Z,98169.88
2022-09-28T08:04:25.419Z,98161.50
2022-09-28T08:08:31.187Z,98173.56
2022-09-28T08:12:35.989Z,98181.59
2022-09-28T08:17:03.268Z,98182.25
2022-09-28T08:21:30.411Z,98173.34
2022-09-28T08:25:36.709Z,98181.28
2022-09-28T08:29:42.637Z,98178.75
2022-09-28T08:34:04.584Z,98183.09
2022-09-28T08:38:34.596Z,98170.81
2022-09-28T08:43:40.927Z,98164.56
2022-09-28T08:48:32.572Z,98146.06
2022-09-28T08:53:22.084Z,98129.00
2022-09-28T08:57:44.465Z,98119.88
2022-09-28T09:01:55.921Z,98113.13
2022-09-28T09:06:10.378Z,98101.81
2022-09-28T09:10:49.001Z,98103.13
2022-09-28T09:15:17.292Z,98086.09
2022-09-28T09:19:55.874Z,98091.78
2022-09-28T09:24:25.143Z,98073.06
2022-09-28T09:28:56.457Z,98069.94
2022-09-28T09:33:40.119Z,98070.47
2022-09-28T09:38:34.618Z,98067.50
2022-09-28T09:43:18.725Z,98056.31
2022-09-28T09:47:45.629Z,98064.53
2022-09-28T09:52:15.081Z,98051.44
2022-09-28T09:56:27.373Z,98050.94
2022-09-28T10:01:10.571Z,98035.84
2022-09-28T10:05:36.990Z,98027.53
2022-09-28T10:09:48.932Z,98016.25
2022-09-28T10:14:23.745Z,98006.50
2022-09-28T10:18:40.245Z,97991.63
2022-09-28T10:23:07.017Z,97997.09
2022-09-28T10:27:16.679Z,97981.81
2022-09-28T10:31:43.115Z,97974.00
2022-09-28T10:36:00.212Z,97973.47
2022-09-28T10:40:04.537Z,97965.22
2022-09-28T10:44:19.965Z,97971.22
2022-09-28T10:48:53.688Z,97973.81
2022-09-28T10:53:13.499Z,97977.06
2022-09-28T10:57:49.994Z,97975.34
2022-09-28T11:01:59.337Z,97971.06
2022-09-28T11:06:08.762Z,97967.72
2022-09-28T11:10:23.762Z,97961.97
2022-09-28T11:14:39.615Z,97974.59
2022-09-28T11:18:48.503Z,97962.41
2022-09-28T11:22:54.976Z,97967.13
2022-09-28T11:27:04.052Z,97952.16
2022-09-28T11:31:11.368Z,97953.47
2022-09-28T11:35:46.985Z,97958.19
2022-09-28T11:39:59.231Z,97964.63
2022-09-28T11:44:32.544Z,97953.03
2022-09-28T11:48:45.363Z,97953.22
2022-09-28T11:52:53.539Z,97942.88
2022-09-28T11:57:02.646Z,97957.75
2022-09-28T12:01:18.865Z,97947.72
2022-09-28T12:05:50.790Z,97941.50
2022-09-28T12:10:01.103Z,97954.75
2022-09-28T12:14:22.465Z,97966.94
2022-09-28T12:18:32.470Z,97960.41
2022-09-28T12:22:55.819Z,97964.69
2022-09-28T12:27:04.518Z,97976.91
2022-09-28T12:31:17.207Z,97969.69
2022-09-28T12:35:29.766Z,97975.16
2022-09-28T12:39:57.449Z,97989.78
2022-09-28T12:44:24.567Z,97991.84
2022-09-28T12:49:43.662Z,97987.28
2022-09-28T12:53:43.949Z,97991.69
2022-09-28T12:57:59.346Z,97992.19
2022-09-28T13:02:39.384Z,97994.59
2022-09-28T13:06:58.268Z,97988.91
2022-09-28T13:11:10.959Z,97976.13
2022-09-28T13:15:44.492Z,97982.13
2022-09-28T13:19:56.421Z,97977.56
2022-09-28T13:24:27.827Z,97985.47
2022-09-28T13:28:31.673Z,97977.38
2022-09-28T13:32:39.030Z,97974.19
2022-09-28T13:36:47.890Z,97966.94
2022-09-28T13:41:16.255Z,97984.50
2022-09-28T13:45:44.393Z,97980.53
2022-09-28T13:50:16.407Z,97985.59
2022-09-28T13:54:47.034Z,97986.09
2022-09-28T13:59:03.712Z,97979.81
2022-09-28T14:03:15.071Z,97993.91
2022-09-28T14:07:23.553Z,98003.63
2022-09-28T14:11:43.261Z,98010.84
2022-09-28T14:15:48.006Z,98000.38
2022-09-28T14:19:55.208Z,97998.31
2022-09-28T14:24:15.547Z,98004.00
2022-09-28T14:28:43.656Z,98005.22
2022-09-28T14:33:00.166Z,98009.88
2022-09-28T14:37:24.312Z,98016.22
2022-09-28T14:41:34.778Z,98020.78
2022-09-28T14:45:51.481Z,98020.94
2022-09-28T14:50:41.159Z,98006.59
2022-09-28T14:54:54.482Z,98005.38
2022-09-28T14:59:00.261Z,98001.75
2022-09-28T15:03:12.068Z,98019.22
2022-09-28T15:08:11.649Z,98022.44
2022-09-28T15:12:39.635Z,98027.56
2022-09-28T15:16:45.895Z,98032.88
2022-09-28T15:21:03.652Z,98035.75
2022-09-28T15:25:15.732Z,98045.78
2022-09-28T15:29:26.165Z,98050.22
2022-09-28T15:34:01.435Z,98045.88
2022-09-28T15:38:06.825Z,98056.00
2022-09-28T15:42:10.101Z,98062.44
2022-09-28T15:46:18.442Z,98071.47
2022-09-28T15:50:23.928Z,98076.13
2022-09-28T15:54:32.820Z,98073.91
2022-09-28T15:58:36.030Z,98062.66
2022-09-28T16:03:00.328Z,98068.81
2022-09-28T16:07:19.429Z,98073.09
2022-09-28T16:11:27.528Z,98080.94
2022-09-28T16:15:35.186Z,98077.06
2022-09-28T16:19:40.167Z,98086.31
2022-09-28T16:23:43.627Z,98084.06
2022-09-28T16:27:47.228Z,98079.94
2022-09-28T16:31:52.717Z,98081.81
2022-09-28T16:35:57.199Z,98096.25
2022-09-28T16:40:00.536Z,98100.97
2022-09-28T16:44:03.854Z,98102.94
2022-09-28T16:48:07.192Z,98109.25
2022-09-28T16:52:13.140Z,98120.75
2022-09-28T16:56:16.550Z,98126.00
2022-09-28T17:00:22.908Z,98127.81
2022-09-28T17:04:27.030Z,98122.06
2022-09-28T17:08:33.719Z,98118.09
2022-09-28T17:12:36.738Z,98115.13
2022-09-28T17:21:05.191Z,98125.53
2022-09-28T17:25:12.700Z,98130.31
2022-09-28T17:29:16.892Z,98129.44
2022-09-28T17:33:20.322Z,98126.94
2022-09-28T17:37:23.651Z,98123.81
2022-09-28T17:42:00.382Z,98133.75
2022-09-28T17:46:30.218Z,98132.47
2022-09-28T17:50:35.301Z,98140.59
2022-09-28T17:54:38.447Z,98139.88
2022-09-28T17:58:42.852Z,98146.13
2022-09-28T18:02:46.543Z,98142.81
2022-09-28T18:06:51.204Z,98145.47
2022-09-28T18:10:54.688Z,98145.59
2022-09-28T18:14:59.337Z,98158.13
2022-09-28T18:19:02.343Z,98153.06
2022-09-28T18:23:06.008Z,98153.00
2022-09-28T18:27:09.141Z,98153.06
2022-09-28T18:31:15.311Z,98156.72
2022-09-28T18:35:22.736Z,98167.50
2022-09-28T18:39:26.628Z,98172.16
2022-09-28T18:43:32.142Z,98173.06
2022-09-28T18:47:40.587Z,98185.56
2022-09-28T18:51:43.820Z,98186.63
2022-09-28T18:55:47.061Z,98191.16
2022-09-28T18:59:50.080Z,98191.16
2022-09-28T19:03:54.512Z,98193.88
2022-09-28T19:07:57.566Z,98192.25
2022-09-28T19:12:00.575Z,98206.50
2022-09-28T19:16:08.779Z,98205.78
2022-09-28T19:20:13.211Z,98209.41
2022-09-28T19:24:17.975Z,98216.72
2022-09-28T19:28:21.353Z,98213.41
2022-09-28T19:32:24.535Z,98215.25
2022-09-28T19:36:30.166Z,98211.00
2022-09-28T19:40:33.407Z,98223.69
2022-09-28T19:44:37.393Z,98217.72
2022-09-28T19:48:41.287Z,98213.69
2022-09-28T19:52:45.682Z,98216.56
2022-09-28T19:56:48.881Z,98227.31
2022-09-28T20:00:52.569Z,98233.75
2022-09-28T20:04:55.497Z,98229.66
2022-09-28T20:08:59.951Z,98226.31
2022-09-28T20:13:03.181Z,98223.81
2022-09-28T20:17:06.455Z,98245.16
2022-09-28T20:21:12.213Z,98231.22
2022-09-28T20:25:18.811Z,98242.16
2022-09-28T20:29:21.907Z,98239.78
2022-09-28T20:33:28.794Z,98242.66
2022-09-28T20:37:34.116Z,98245.34
2022-09-28T20:41:38.845Z,98254.28
2022-09-28T20:45:41.932Z,98271.09
2022-09-28T20:49:46.416Z,98263.25
2022-09-28T20:53:51.405Z,98270.53
2022-09-28T20:57:56.023Z,98274.28
2022-09-28T21:01:59.398Z,98273.72
2022-09-28T21:06:02.996Z,98285.31
2022-09-28T21:10:07.084Z,98283.72
2022-09-28T21:14:11.783Z,98289.97
2022-09-28T21:18:15.027Z,98293.56
2022-09-28T21:22:18.573Z,98285.84
2022-09-28T21:26:25.691Z,98288.81
2022-09-28T21:30:30.135Z,98291.69
2022-09-28T21:34:33.587Z,98298.13
2022-09-28T21:38:36.588Z,98298.34
2022-09-28T21:42:39.643Z,98301.09
2022-09-28T21:46:44.475Z,98303.81
2022-09-28T21:50:56.793Z,98304.81
2022-09-28T21:54:59.869Z,98313.75
2022-09-28T21:59:03.029Z,98311.16
2022-09-28T22:03:07.514Z,98306.91
2022-09-28T22:07:11.032Z,98313.22
2022-09-28T22:11:16.487Z,98307.13
2022-09-28T22:15:19.534Z,98304.53
2022-09-28T22:19:23.885Z,98309.06
2022-09-28T22:23:27.281Z,98317.97
2022-09-28T22:27:32.987Z,98319.91
2022-09-28T22:31:38.165Z,98325.41
2022-09-28T22:35:42.784Z,98329.09
2022-09-28T22:39:46.155Z,98332.72
2022-09-28T22:43:50.444Z,98338.00
2022-09-28T22:47:53.438Z,98343.47
2022-09-28T22:51:57.974Z,98340.88
2022-09-28T22:56:04.068Z,98347.19
2022-09-28T23:00:08.704Z,98356.16
2022-09-28T23:04:11.836Z,98359.75
2022-09-28T23:08:16.174Z,98365.19
2022-09-28T23:12:19.332Z,98359.94
2022-09-28T23:16:23.682Z,98372.34
2022-09-28T23:20:26.814Z,98383.91
2022-09-28T23:24:31.394Z,98387.47
2022-09-28T23:28:34.379Z,98380.44
2022-09-28T23:32:37.524Z,98383.22
2022-09-28T23:36:40.866Z,98381.53
2022-09-28T23:40:46.514Z,98389.50
2022-09-28T23:44:49.569Z,98389.50
2022-09-28T23:48:52.715Z,98379.91
2022-09-28T23:52:55.902Z,98382.72
2022-09-28T23:57:00.465Z,98377.59
